sensor_id;sensor_type;location;lat;lon;timestamp;temperature;humidity
33105;DHT22;19476;51.448;6.674;2023-09-08T00:00:00;27.20;42.50
33105;DHT22;19476;51.448;6.674;2023-09-08T00:02:27;27.20;42.50
33105;DHT22;19476;51.448;6.674;2023-09-08T00:04:54;27.20;42.60
33105;DHT22;19476;51.448;6.674;2023-09-08T00:07:20;27.10;42.40
33105;DHT22;19476;51.448;6.674;2023-09-08T00:09:45;27.10;42.60
33105;DHT22;19476;51.448;6.674;2023-09-08T00:12:11;27.00;42.50
33105;DHT22;19476;51.448;6.674;2023-09-08T00:14:37;27.00;42.90
33105;DHT22;19476;51.448;6.674;2023-09-08T00:17:04;27.00;42.70
33105;DHT22;19476;51.448;6.674;2023-09-08T00:19:30;27.00;42.60
33105;DHT22;19476;51.448;6.674;2023-09-08T00:21:56;26.90;42.60
33105;DHT22;19476;51.448;6.674;2023-09-08T00:24:22;26.90;42.60
33105;DHT22;19476;51.448;6.674;2023-09-08T00:26:48;26.90;42.50
33105;DHT22;19476;51.448;6.674;2023-09-08T00:29:14;26.90;42.50
33105;DHT22;19476;51.448;6.674;2023-09-08T00:31:40;26.80;42.60
33105;DHT22;19476;51.448;6.674;2023-09-08T00:34:06;26.80;42.50
33105;DHT22;19476;51.448;6.674;2023-09-08T00:36:32;26.80;42.70
33105;DHT22;19476;51.448;6.674;2023-09-08T00:38:58;26.80;42.80
33105;DHT22;19476;51.448;6.674;2023-09-08T00:41:23;26.80;42.90
33105;DHT22;19476;51.448;6.674;2023-09-08T00:43:50;26.80;43.00
33105;DHT22;19476;51.448;6.674;2023-09-08T00:46:16;26.80;43.00
33105;DHT22;19476;51.448;6.674;2023-09-08T00:48:42;26.80;42.90
33105;DHT22;19476;51.448;6.674;2023-09-08T00:51:09;26.80;42.90
33105;DHT22;19476;51.448;6.674;2023-09-08T00:53:38;26.80;43.10
33105;DHT22;19476;51.448;6.674;2023-09-08T00:56:04;26.70;43.20
33105;DHT22;19476;51.448;6.674;2023-09-08T00:58:30;26.70;43.30
33105;DHT22;19476;51.448;6.674;2023-09-08T01:00:56;26.70;43.40
33105;DHT22;19476;51.448;6.674;2023-09-08T01:03:25;26.70;43.60
33105;DHT22;19476;51.448;6.674;2023-09-08T01:05:51;26.70;43.60
33105;DHT22;19476;51.448;6.674;2023-09-08T01:08:18;26.60;43.60
33105;DHT22;19476;51.448;6.674;2023-09-08T01:10:45;26.60;43.80
33105;DHT22;19476;51.448;6.674;2023-09-08T01:13:11;26.60;44.00
33105;DHT22;19476;51.448;6.674;2023-09-08T01:15:36;26.60;43.90
33105;DHT22;19476;51.448;6.674;2023-09-08T01:18:02;26.50;43.90
33105;DHT22;19476;51.448;6.674;2023-09-08T01:26:12;26.40;44.10
33105;DHT22;19476;51.448;6.674;2023-09-08T01:28:41;26.40;44.60
33105;DHT22;19476;51.448;6.674;2023-09-08T01:31:07;26.40;44.30
33105;DHT22;19476;51.448;6.674;2023-09-08T01:33:33;26.30;44.50
33105;DHT22;19476;51.448;6.674;2023-09-08T01:36:00;26.30;44.50
33105;DHT22;19476;51.448;6.674;2023-09-08T01:38:26;26.30;44.70
33105;DHT22;19476;51.448;6.674;2023-09-08T01:40:51;26.30;44.70
33105;DHT22;19476;51.448;6.674;2023-09-08T01:43:17;26.30;44.70
33105;DHT22;19476;51.448;6.674;2023-09-08T01:45:43;26.20;44.70
33105;DHT22;19476;51.448;6.674;2023-09-08T01:48:09;26.20;44.90
33105;DHT22;19476;51.448;6.674;2023-09-08T01:50:34;26.20;44.90
33105;DHT22;19476;51.448;6.674;2023-09-08T01:53:00;26.10;44.90
33105;DHT22;19476;51.448;6.674;2023-09-08T01:55:26;26.10;44.90
33105;DHT22;19476;51.448;6.674;2023-09-08T01:57:52;26.10;45.00
33105;DHT22;19476;51.448;6.674;2023-09-08T02:00:17;26.10;45.10
33105;DHT22;19476;51.448;6.674;2023-09-08T02:02:43;26.00;45.00
33105;DHT22;19476;51.448;6.674;2023-09-08T02:05:09;26.00;45.10
33105;DHT22;19476;51.448;6.674;2023-09-08T02:07:35;26.00;45.20
33105;DHT22;19476;51.448;6.674;2023-09-08T02:10:01;26.00;45.30
33105;DHT22;19476;51.448;6.674;2023-09-08T02:12:27;25.90;45.20
33105;DHT22;19476;51.448;6.674;2023-09-08T02:14:52;25.90;45.30
33105;DHT22;19476;51.448;6.674;2023-09-08T02:17:18;25.90;45.30
33105;DHT22;19476;51.448;6.674;2023-09-08T02:19:44;25.90;45.40
33105;DHT22;19476;51.448;6.674;2023-09-08T02:22:10;25.90;45.40
33105;DHT22;19476;51.448;6.674;2023-09-08T02:24:36;25.90;45.50
33105;DHT22;19476;51.448;6.674;2023-09-08T02:27:02;25.80;45.60
33105;DHT22;19476;51.448;6.674;2023-09-08T02:29:28;25.70;45.70
33105;DHT22;19476;51.448;6.674;2023-09-08T02:31:53;25.70;45.80
33105;DHT22;19476;51.448;6.674;2023-09-08T02:34:19;25.70;45.80
33105;DHT22;19476;51.448;6.674;2023-09-08T02:36:45;25.70;45.90
33105;DHT22;19476;51.448;6.674;2023-09-08T02:39:13;25.60;45.80
33105;DHT22;19476;51.448;6.674;2023-09-08T02:41:39;25.60;45.90
33105;DHT22;19476;51.448;6.674;2023-09-08T02:44:05;25.60;45.90
33105;DHT22;19476;51.448;6.674;2023-09-08T02:46:31;25.60;46.00
33105;DHT22;19476;51.448;6.674;2023-09-08T02:48:57;25.60;46.00
33105;DHT22;19476;51.448;6.674;2023-09-08T02:51:22;25.50;46.60
33105;DHT22;19476;51.448;6.674;2023-09-08T02:53:48;25.50;46.10
33105;DHT22;19476;51.448;6.674;2023-09-08T02:56:14;25.50;46.10
33105;DHT22;19476;51.448;6.674;2023-09-08T02:58:40;25.50;46.30
33105;DHT22;19476;51.448;6.674;2023-09-08T03:01:16;25.40;46.30
33105;DHT22;19476;51.448;6.674;2023-09-08T03:03:46;25.40;46.80
33105;DHT22;19476;51.448;6.674;2023-09-08T03:06:14;25.40;46.40
33105;DHT22;19476;51.448;6.674;2023-09-08T03:08:40;25.40;46.50
33105;DHT22;19476;51.448;6.674;2023-09-08T03:11:07;25.30;46.50
33105;DHT22;19476;51.448;6.674;2023-09-08T03:13:34;25.30;46.70
33105;DHT22;19476;51.448;6.674;2023-09-08T03:16:05;25.20;46.70
33105;DHT22;19476;51.448;6.674;2023-09-08T03:18:34;25.20;47.10
33105;DHT22;19476;51.448;6.674;2023-09-08T03:21:02;25.20;46.90
33105;DHT22;19476;51.448;6.674;2023-09-08T03:23:36;25.20;47.00
33105;DHT22;19476;51.448;6.674;2023-09-08T03:26:02;25.20;47.30
33105;DHT22;19476;51.448;6.674;2023-09-08T03:28:28;25.20;47.10
33105;DHT22;19476;51.448;6.674;2023-09-08T03:30:53;25.20;47.00
33105;DHT22;19476;51.448;6.674;2023-09-08T03:33:19;25.20;47.00
33105;DHT22;19476;51.448;6.674;2023-09-08T03:35:45;25.10;47.00
33105;DHT22;19476;51.448;6.674;2023-09-08T03:38:10;25.10;47.20
33105;DHT22;19476;51.448;6.674;2023-09-08T03:40:36;25.10;47.20
33105;DHT22;19476;51.448;6.674;2023-09-08T03:43:04;25.10;47.30
33105;DHT22;19476;51.448;6.674;2023-09-08T03:45:29;25.10;47.40
33105;DHT22;19476;51.448;6.674;2023-09-08T03:47:55;25.00;47.30
33105;DHT22;19476;51.448;6.674;2023-09-08T03:50:21;25.00;47.40
33105;DHT22;19476;51.448;6.674;2023-09-08T03:52:47;25.00;47.40
33105;DHT22;19476;51.448;6.674;2023-09-08T03:55:12;25.00;47.50
33105;DHT22;19476;51.448;6.674;2023-09-08T03:57:39;25.00;47.60
33105;DHT22;19476;51.448;6.674;2023-09-08T04:00:05;24.90;47.40
33105;DHT22;19476;51.448;6.674;2023-09-08T04:02:32;24.90;47.70
33105;DHT22;19476;51.448;6.674;2023-09-08T04:04:58;24.90;47.60
33105;DHT22;19476;51.448;6.674;2023-09-08T04:07:24;24.90;47.60
33105;DHT22;19476;51.448;6.674;2023-09-08T04:09:50;24.90;47.70
33105;DHT22;19476;51.448;6.674;2023-09-08T04:12:16;24.80;47.70
33105;DHT22;19476;51.448;6.674;2023-09-08T04:14:42;24.80;47.70
33105;DHT22;19476;51.448;6.674;2023-09-08T04:17:07;24.80;47.80
33105;DHT22;19476;51.448;6.674;2023-09-08T04:19:33;24.80;47.90
33105;DHT22;19476;51.448;6.674;2023-09-08T04:21:59;24.70;47.90
33105;DHT22;19476;51.448;6.674;2023-09-08T04:24:25;24.70;48.00
33105;DHT22;19476;51.448;6.674;2023-09-08T04:26:51;24.70;48.00
33105;DHT22;19476;51.448;6.674;2023-09-08T04:29:17;24.70;48.10
33105;DHT22;19476;51.448;6.674;2023-09-08T04:31:42;24.70;48.10
33105;DHT22;19476;51.448;6.674;2023-09-08T04:34:08;24.60;48.30
33105;DHT22;19476;51.448;6.674;2023-09-08T04:36:34;24.60;48.40
33105;DHT22;19476;51.448;6.674;2023-09-08T04:39:00;24.50;48.40
33105;DHT22;19476;51.448;6.674;2023-09-08T04:41:25;24.50;48.60
33105;DHT22;19476;51.448;6.674;2023-09-08T04:43:51;24.50;48.70
33105;DHT22;19476;51.448;6.674;2023-09-08T04:46:17;24.50;48.80
33105;DHT22;19476;51.448;6.674;2023-09-08T04:48:43;24.50;48.80
33105;DHT22;19476;51.448;6.674;2023-09-08T04:51:09;24.40;48.70
33105;DHT22;19476;51.448;6.674;2023-09-08T04:53:34;24.50;48.80
33105;DHT22;19476;51.448;6.674;2023-09-08T04:56:02;24.40;48.80
33105;DHT22;19476;51.448;6.674;2023-09-08T04:58:27;24.40;48.90
33105;DHT22;19476;51.448;6.674;2023-09-08T05:00:53;24.40;48.90
33105;DHT22;19476;51.448;6.674;2023-09-08T05:03:19;24.40;49.00
33105;DHT22;19476;51.448;6.674;2023-09-08T05:05:45;24.40;49.00
33105;DHT22;19476;51.448;6.674;2023-09-08T05:08:11;24.40;49.00
33105;DHT22;19476;51.448;6.674;2023-09-08T05:10:36;24.40;49.00
33105;DHT22;19476;51.448;6.674;2023-09-08T05:13:02;24.30;48.90
33105;DHT22;19476;51.448;6.674;2023-09-08T05:15:28;24.30;48.90
33105;DHT22;19476;51.448;6.674;2023-09-08T05:17:56;24.30;49.00
33105;DHT22;19476;51.448;6.674;2023-09-08T05:20:22;24.30;49.10
33105;DHT22;19476;51.448;6.674;2023-09-08T05:22:47;24.20;49.20
33105;DHT22;19476;51.448;6.674;2023-09-08T05:25:13;24.20;49.30
33105;DHT22;19476;51.448;6.674;2023-09-08T05:27:39;24.20;49.40
33105;DHT22;19476;51.448;6.674;2023-09-08T05:30:05;24.20;49.50
33105;DHT22;19476;51.448;6.674;2023-09-08T05:32:32;24.20;49.60
33105;DHT22;19476;51.448;6.674;2023-09-08T05:34:58;24.20;49.60
33105;DHT22;19476;51.448;6.674;2023-09-08T05:37:23;24.20;49.70
33105;DHT22;19476;51.448;6.674;2023-09-08T05:39:49;24.20;49.80
33105;DHT22;19476;51.448;6.674;2023-09-08T05:42:15;24.20;49.80
33105;DHT22;19476;51.448;6.674;2023-09-08T05:44:40;24.30;50.00
33105;DHT22;19476;51.448;6.674;2023-09-08T05:47:06;24.30;50.00
33105;DHT22;19476;51.448;6.674;2023-09-08T05:49:32;24.30;50.00
33105;DHT22;19476;51.448;6.674;2023-09-08T05:51:58;24.30;50.10
33105;DHT22;19476;51.448;6.674;2023-09-08T05:54:23;24.40;50.20
33105;DHT22;19476;51.448;6.674;2023-09-08T05:56:49;24.40;50.20
33105;DHT22;19476;51.448;6.674;2023-09-08T05:59:15;24.40;50.10
33105;DHT22;19476;51.448;6.674;2023-09-08T06:01:41;24.40;50.10
33105;DHT22;19476;51.448;6.674;2023-09-08T06:04:07;24.50;50.20
33105;DHT22;19476;51.448;6.674;2023-09-08T06:06:32;24.50;50.30
33105;DHT22;19476;51.448;6.674;2023-09-08T06:08:58;24.50;50.20
33105;DHT22;19476;51.448;6.674;2023-09-08T06:11:24;24.60;50.30
33105;DHT22;19476;51.448;6.674;2023-09-08T06:13:50;24.60;50.30
33105;DHT22;19476;51.448;6.674;2023-09-08T06:16:15;24.60;50.20
33105;DHT22;19476;51.448;6.674;2023-09-08T06:18:41;24.60;50.00
33105;DHT22;19476;51.448;6.674;2023-09-08T06:21:07;24.70;49.90
33105;DHT22;19476;51.448;6.674;2023-09-08T06:23:34;24.70;49.90
33105;DHT22;19476;51.448;6.674;2023-09-08T06:26:00;24.70;50.00
33105;DHT22;19476;51.448;6.674;2023-09-08T06:28:29;24.80;49.90
33105;DHT22;19476;51.448;6.674;2023-09-08T06:30:55;24.80;49.80
33105;DHT22;19476;51.448;6.674;2023-09-08T06:33:21;24.80;49.50
33105;DHT22;19476;51.448;6.674;2023-09-08T06:35:48;24.90;49.40
33105;DHT22;19476;51.448;6.674;2023-09-08T06:38:14;24.90;49.20
33105;DHT22;19476;51.448;6.674;2023-09-08T06:40:40;25.00;49.20
33105;DHT22;19476;51.448;6.674;2023-09-08T06:43:05;25.00;49.10
33105;DHT22;19476;51.448;6.674;2023-09-08T06:45:31;25.00;49.10
33105;DHT22;19476;51.448;6.674;2023-09-08T06:47:57;25.10;49.10
33105;DHT22;19476;51.448;6.674;2023-09-08T06:50:24;25.10;49.00
33105;DHT22;19476;51.448;6.674;2023-09-08T06:52:50;25.10;49.10
33105;DHT22;19476;51.448;6.674;2023-09-08T06:55:16;25.10;49.20
33105;DHT22;19476;51.448;6.674;2023-09-08T06:57:43;25.20;49.30
33105;DHT22;19476;51.448;6.674;2023-09-08T07:00:09;25.20;49.20
33105;DHT22;19476;51.448;6.674;2023-09-08T07:02:37;25.30;49.30
33105;DHT22;19476;51.448;6.674;2023-09-08T07:05:03;25.30;49.30
33105;DHT22;19476;51.448;6.674;2023-09-08T07:07:34;25.40;49.30
33105;DHT22;19476;51.448;6.674;2023-09-08T07:10:02;25.40;49.20
33105;DHT22;19476;51.448;6.674;2023-09-08T07:12:28;25.50;49.30
33105;DHT22;19476;51.448;6.674;2023-09-08T07:14:53;25.90;49.20
33105;DHT22;19476;51.448;6.674;2023-09-08T07:17:20;25.60;48.90
33105;DHT22;19476;51.448;6.674;2023-09-08T07:19:49;25.60;49.00
33105;DHT22;19476;51.448;6.674;2023-09-08T07:22:15;25.70;48.90
33105;DHT22;19476;51.448;6.674;2023-09-08T07:24:40;25.80;48.90
33105;DHT22;19476;51.448;6.674;2023-09-08T07:27:06;25.80;48.80
33105;DHT22;19476;51.448;6.674;2023-09-08T07:29:32;25.90;48.60
33105;DHT22;19476;51.448;6.674;2023-09-08T07:31:59;26.00;48.90
33105;DHT22;19476;51.448;6.674;2023-09-08T07:34:25;26.00;48.20
33105;DHT22;19476;51.448;6.674;2023-09-08T07:36:50;26.10;47.80
33105;DHT22;19476;51.448;6.674;2023-09-08T07:39:16;26.20;47.80
33105;DHT22;19476;51.448;6.674;2023-09-08T07:41:42;26.30;47.60
33105;DHT22;19476;51.448;6.674;2023-09-08T07:44:08;26.30;47.30
33105;DHT22;19476;51.448;6.674;2023-09-08T07:46:33;26.40;47.20
33105;DHT22;19476;51.448;6.674;2023-09-08T07:48:59;26.40;47.10
33105;DHT22;19476;51.448;6.674;2023-09-08T07:51:26;26.50;47.10
33105;DHT22;19476;51.448;6.674;2023-09-08T07:53:53;26.60;47.00
33105;DHT22;19476;51.448;6.674;2023-09-08T07:56:19;26.60;46.70
33105;DHT22;19476;51.448;6.674;2023-09-08T07:58:45;26.70;46.70
33105;DHT22;19476;51.448;6.674;2023-09-08T08:01:13;26.80;46.60
33105;DHT22;19476;51.448;6.674;2023-09-08T08:03:39;26.80;46.50
33105;DHT22;19476;51.448;6.674;2023-09-08T08:06:05;26.90;46.30
33105;DHT22;19476;51.448;6.674;2023-09-08T08:08:31;27.00;46.30
33105;DHT22;19476;51.448;6.674;2023-09-08T08:10:59;27.00;46.10
33105;DHT22;19476;51.448;6.674;2023-09-08T08:13:25;27.10;45.80
33105;DHT22;19476;51.448;6.674;2023-09-08T08:15:51;27.20;45.60
33105;DHT22;19476;51.448;6.674;2023-09-08T08:18:17;27.20;45.40
33105;DHT22;19476;51.448;6.674;2023-09-08T08:20:43;27.30;45.40
33105;DHT22;19476;51.448;6.674;2023-09-08T08:23:08;27.30;45.30
33105;DHT22;19476;51.448;6.674;2023-09-08T08:25:35;27.40;45.40
33105;DHT22;19476;51.448;6.674;2023-09-08T08:28:00;27.50;45.30
33105;DHT22;19476;51.448;6.674;2023-09-08T08:30:27;27.50;45.20
33105;DHT22;19476;51.448;6.674;2023-09-08T08:32:53;27.60;45.00
33105;DHT22;19476;51.448;6.674;2023-09-08T08:35:22;27.70;44.70
33105;DHT22;19476;51.448;6.674;2023-09-08T08:37:47;27.70;44.30
33105;DHT22;19476;51.448;6.674;2023-09-08T08:40:13;27.80;44.00
33105;DHT22;19476;51.448;6.674;2023-09-08T08:42:40;27.80;43.90
33105;DHT22;19476;51.448;6.674;2023-09-08T08:45:07;27.90;43.80
33105;DHT22;19476;51.448;6.674;2023-09-08T08:47:32;27.90;43.40
33105;DHT22;19476;51.448;6.674;2023-09-08T08:49:59;28.00;43.30
33105;DHT22;19476;51.448;6.674;2023-09-08T08:52:27;28.00;43.20
33105;DHT22;19476;51.448;6.674;2023-09-08T08:54:54;28.10;43.00
33105;DHT22;19476;51.448;6.674;2023-09-08T08:57:21;28.20;43.00
33105;DHT22;19476;51.448;6.674;2023-09-08T08:59:47;28.20;42.90
33105;DHT22;19476;51.448;6.674;2023-09-08T09:02:14;28.30;43.00
33105;DHT22;19476;51.448;6.674;2023-09-08T09:04:41;28.30;42.70
33105;DHT22;19476;51.448;6.674;2023-09-08T09:07:07;28.40;42.50
33105;DHT22;19476;51.448;6.674;2023-09-08T09:09:34;28.40;43.10
33105;DHT22;19476;51.448;6.674;2023-09-08T09:11:59;28.50;42.50
33105;DHT22;19476;51.448;6.674;2023-09-08T09:14:28;28.50;42.60
33105;DHT22;19476;51.448;6.674;2023-09-08T09:16:57;28.60;42.60
33105;DHT22;19476;51.448;6.674;2023-09-08T09:19:23;28.70;42.40
33105;DHT22;19476;51.448;6.674;2023-09-08T09:21:57;28.70;42.60
33105;DHT22;19476;51.448;6.674;2023-09-08T09:27:03;28.90;42.20
33105;DHT22;19476;51.448;6.674;2023-09-08T09:29:32;28.90;42.40
33105;DHT22;19476;51.448;6.674;2023-09-08T09:32:06;29.00;42.30
33105;DHT22;19476;51.448;6.674;2023-09-08T09:34:33;29.10;42.10
33105;DHT22;19476;51.448;6.674;2023-09-08T09:36:59;29.10;42.10
33105;DHT22;19476;51.448;6.674;2023-09-08T09:39:26;29.20;42.20
33105;DHT22;19476;51.448;6.674;2023-09-08T09:41:56;29.30;42.00
33105;DHT22;19476;51.448;6.674;2023-09-08T09:44:23;29.30;41.60
33105;DHT22;19476;51.448;6.674;2023-09-08T09:46:52;29.50;42.00
33105;DHT22;19476;51.448;6.674;2023-09-08T09:49:18;29.50;41.30
33105;DHT22;19476;51.448;6.674;2023-09-08T09:51:49;29.60;41.30
33105;DHT22;19476;51.448;6.674;2023-09-08T09:54:16;29.70;41.20
33105;DHT22;19476;51.448;6.674;2023-09-08T09:56:43;29.70;41.40
33105;DHT22;19476;51.448;6.674;2023-09-08T09:59:11;29.80;40.90
33105;DHT22;19476;51.448;6.674;2023-09-08T10:01:38;29.80;41.60
33105;DHT22;19476;51.448;6.674;2023-09-08T10:04:05;29.90;41.00
33105;DHT22;19476;51.448;6.674;2023-09-08T10:06:33;30.00;40.80
33105;DHT22;19476;51.448;6.674;2023-09-08T10:09:00;30.10;40.40
33105;DHT22;19476;51.448;6.674;2023-09-08T10:11:29;30.10;40.30
33105;DHT22;19476;51.448;6.674;2023-09-08T10:13:58;30.10;40.30
33105;DHT22;19476;51.448;6.674;2023-09-08T10:16:26;30.20;40.10
33105;DHT22;19476;51.448;6.674;2023-09-08T10:18:54;30.30;40.00
33105;DHT22;19476;51.448;6.674;2023-09-08T10:21:23;30.30;40.10
33105;DHT22;19476;51.448;6.674;2023-09-08T10:23:59;30.40;40.00
33105;DHT22;19476;51.448;6.674;2023-09-08T10:26:27;30.50;39.60
33105;DHT22;19476;51.448;6.674;2023-09-08T10:28:55;30.60;39.80
33105;DHT22;19476;51.448;6.674;2023-09-08T10:31:25;30.60;39.70
33105;DHT22;19476;51.448;6.674;2023-09-08T10:33:54;30.70;39.70
33105;DHT22;19476;51.448;6.674;2023-09-08T10:36:20;30.70;39.80
33105;DHT22;19476;51.448;6.674;2023-09-08T10:38:46;30.80;39.70
33105;DHT22;19476;51.448;6.674;2023-09-08T10:43:54;30.90;39.20
33105;DHT22;19476;51.448;6.674;2023-09-08T10:46:26;31.00;39.50
33105;DHT22;19476;51.448;6.674;2023-09-08T10:49:01;31.10;39.10
33105;DHT22;19476;51.448;6.674;2023-09-08T10:51:29;31.20;39.10
33105;DHT22;19476;51.448;6.674;2023-09-08T10:53:55;31.30;39.20
33105;DHT22;19476;51.448;6.674;2023-09-08T10:56:21;31.30;38.90
33105;DHT22;19476;51.448;6.674;2023-09-08T10:58:51;31.40;39.00
33105;DHT22;19476;51.448;6.674;2023-09-08T11:01:21;31.40;38.90
33105;DHT22;19476;51.448;6.674;2023-09-08T11:03:52;31.50;38.70
33105;DHT22;19476;51.448;6.674;2023-09-08T11:06:20;31.60;38.70
33105;DHT22;19476;51.448;6.674;2023-09-08T11:08:49;31.70;38.50
33105;DHT22;19476;51.448;6.674;2023-09-08T11:11:18;31.70;38.20
33105;DHT22;19476;51.448;6.674;2023-09-08T11:13:44;31.80;37.70
33105;DHT22;19476;51.448;6.674;2023-09-08T11:16:14;31.90;37.80
33105;DHT22;19476;51.448;6.674;2023-09-08T11:18:41;32.00;37.80
33105;DHT22;19476;51.448;6.674;2023-09-08T11:21:09;32.00;37.60
33105;DHT22;19476;51.448;6.674;2023-09-08T11:23:36;32.10;37.60
33105;DHT22;19476;51.448;6.674;2023-09-08T11:26:02;32.20;37.40
33105;DHT22;19476;51.448;6.674;2023-09-08T11:28:28;32.20;37.40
33105;DHT22;19476;51.448;6.674;2023-09-08T11:30:54;32.30;37.40
33105;DHT22;19476;51.448;6.674;2023-09-08T11:33:21;32.40;37.50
33105;DHT22;19476;51.448;6.674;2023-09-08T11:35:54;32.50;37.30
33105;DHT22;19476;51.448;6.674;2023-09-08T11:38:27;32.50;37.10
33105;DHT22;19476;51.448;6.674;2023-09-08T11:40:54;32.60;37.10
33105;DHT22;19476;51.448;6.674;2023-09-08T11:43:20;32.80;37.20
33105;DHT22;19476;51.448;6.674;2023-09-08T11:45:46;32.80;37.20
33105;DHT22;19476;51.448;6.674;2023-09-08T11:48:14;32.90;37.00
33105;DHT22;19476;51.448;6.674;2023-09-08T11:50:41;33.00;36.70
33105;DHT22;19476;51.448;6.674;2023-09-08T11:53:07;33.10;36.90
33105;DHT22;19476;51.448;6.674;2023-09-08T11:55:34;33.20;36.90
33105;DHT22;19476;51.448;6.674;2023-09-08T11:58:02;33.20;36.70
33105;DHT22;19476;51.448;6.674;2023-09-08T12:00:29;33.40;36.70
33105;DHT22;19476;51.448;6.674;2023-09-08T12:02:55;33.50;36.60
33105;DHT22;19476;51.448;6.674;2023-09-08T12:05:27;33.50;36.30
33105;DHT22;19476;51.448;6.674;2023-09-08T12:07:54;33.60;35.70
33105;DHT22;19476;51.448;6.674;2023-09-08T12:10:20;33.70;36.00
33105;DHT22;19476;51.448;6.674;2023-09-08T12:12:51;33.80;35.80
33105;DHT22;19476;51.448;6.674;2023-09-08T12:15:30;33.90;35.30
33105;DHT22;19476;51.448;6.674;2023-09-08T12:18:01;33.90;35.40
33105;DHT22;19476;51.448;6.674;2023-09-08T12:20:27;34.10;35.70
33105;DHT22;19476;51.448;6.674;2023-09-08T12:22:56;34.20;35.50
33105;DHT22;19476;51.448;6.674;2023-09-08T12:25:22;34.30;35.30
33105;DHT22;19476;51.448;6.674;2023-09-08T12:27:50;34.40;35.00
33105;DHT22;19476;51.448;6.674;2023-09-08T12:30:21;34.50;34.80
33105;DHT22;19476;51.448;6.674;2023-09-08T12:32:51;34.60;34.60
33105;DHT22;19476;51.448;6.674;2023-09-08T12:35:21;34.70;34.50
33105;DHT22;19476;51.448;6.674;2023-09-08T12:38:08;34.90;34.40
33105;DHT22;19476;51.448;6.674;2023-09-08T12:40:35;35.10;34.60
33105;DHT22;19476;51.448;6.674;2023-09-08T12:43:02;35.20;34.60
33105;DHT22;19476;51.448;6.674;2023-09-08T12:45:30;35.30;34.50
33105;DHT22;19476;51.448;6.674;2023-09-08T12:48:01;35.50;34.10
33105;DHT22;19476;51.448;6.674;2023-09-08T12:50:28;35.60;34.00
33105;DHT22;19476;51.448;6.674;2023-09-08T12:52:54;35.70;33.90
33105;DHT22;19476;51.448;6.674;2023-09-08T12:55:20;35.90;33.80
33105;DHT22;19476;51.448;6.674;2023-09-08T12:57:46;36.00;33.60
33105;DHT22;19476;51.448;6.674;2023-09-08T13:00:13;36.10;33.10
33105;DHT22;19476;51.448;6.674;2023-09-08T13:02:40;36.20;33.00
33105;DHT22;19476;51.448;6.674;2023-09-08T13:05:07;36.30;32.80
33105;DHT22;19476;51.448;6.674;2023-09-08T13:07:33;36.50;32.90
33105;DHT22;19476;51.448;6.674;2023-09-08T13:09:59;36.60;32.90
33105;DHT22;19476;51.448;6.674;2023-09-08T13:15:47;36.70;31.90
33105;DHT22;19476;51.448;6.674;2023-09-08T13:18:15;36.80;31.70
33105;DHT22;19476;51.448;6.674;2023-09-08T13:20:40;36.90;31.70
33105;DHT22;19476;51.448;6.674;2023-09-08T13:23:06;37.00;31.40
33105;DHT22;19476;51.448;6.674;2023-09-08T13:25:32;37.00;31.10
33105;DHT22;19476;51.448;6.674;2023-09-08T13:27:58;37.10;31.10
33105;DHT22;19476;51.448;6.674;2023-09-08T13:30:24;37.30;31.20
33105;DHT22;19476;51.448;6.674;2023-09-08T13:32:52;37.20;31.10
33105;DHT22;19476;51.448;6.674;2023-09-08T13:35:18;37.40;31.30
33105;DHT22;19476;51.448;6.674;2023-09-08T13:37:44;37.50;31.00
33105;DHT22;19476;51.448;6.674;2023-09-08T13:40:09;37.60;30.90
33105;DHT22;19476;51.448;6.674;2023-09-08T13:42:35;37.70;30.70
33105;DHT22;19476;51.448;6.674;2023-09-08T13:45:02;37.80;30.60
33105;DHT22;19476;51.448;6.674;2023-09-08T13:47:28;37.90;30.50
33105;DHT22;19476;51.448;6.674;2023-09-08T13:49:54;38.00;30.20
33105;DHT22;19476;51.448;6.674;2023-09-08T13:52:20;38.10;30.30
33105;DHT22;19476;51.448;6.674;2023-09-08T13:54:46;38.20;30.20
33105;DHT22;19476;51.448;6.674;2023-09-08T13:57:11;38.30;30.10
33105;DHT22;19476;51.448;6.674;2023-09-08T13:59:37;38.40;30.00
33105;DHT22;19476;51.448;6.674;2023-09-08T14:02:03;38.50;30.00
33105;DHT22;19476;51.448;6.674;2023-09-08T14:04:29;38.70;30.00
33105;DHT22;19476;51.448;6.674;2023-09-08T14:06:55;38.70;30.00
33105;DHT22;19476;51.448;6.674;2023-09-08T14:09:21;38.90;29.90
33105;DHT22;19476;51.448;6.674;2023-09-08T14:11:47;39.10;29.80
33105;DHT22;19476;51.448;6.674;2023-09-08T14:14:12;39.20;29.70
33105;DHT22;19476;51.448;6.674;2023-09-08T14:16:38;39.40;30.00
33105;DHT22;19476;51.448;6.674;2023-09-08T14:19:04;39.50;29.50
33105;DHT22;19476;51.448;6.674;2023-09-08T14:21:30;39.60;29.40
33105;DHT22;19476;51.448;6.674;2023-09-08T14:23:57;39.80;29.30
33105;DHT22;19476;51.448;6.674;2023-09-08T14:26:23;39.90;29.10
33105;DHT22;19476;51.448;6.674;2023-09-08T14:28:49;40.00;29.00
33105;DHT22;19476;51.448;6.674;2023-09-08T14:31:15;40.20;29.00
33105;DHT22;19476;51.448;6.674;2023-09-08T14:33:40;40.30;28.90
33105;DHT22;19476;51.448;6.674;2023-09-08T14:36:06;40.40;28.80
33105;DHT22;19476;51.448;6.674;2023-09-08T14:38:33;40.50;28.80
33105;DHT22;19476;51.448;6.674;2023-09-08T14:41:00;40.70;28.70
33105;DHT22;19476;51.448;6.674;2023-09-08T14:43:27;40.80;28.50
33105;DHT22;19476;51.448;6.674;2023-09-08T14:45:54;41.00;28.50
33105;DHT22;19476;51.448;6.674;2023-09-08T14:48:20;41.10;28.20
33105;DHT22;19476;51.448;6.674;2023-09-08T14:50:46;41.20;28.10
33105;DHT22;19476;51.448;6.674;2023-09-08T14:53:12;41.30;27.80
33105;DHT22;19476;51.448;6.674;2023-09-08T14:55:38;41.30;27.60
33105;DHT22;19476;51.448;6.674;2023-09-08T14:58:04;41.50;27.30
33105;DHT22;19476;51.448;6.674;2023-09-08T15:00:30;41.60;27.30
33105;DHT22;19476;51.448;6.674;2023-09-08T15:02:56;41.60;27.30
33105;DHT22;19476;51.448;6.674;2023-09-08T15:05:22;41.80;27.30
33105;DHT22;19476;51.448;6.674;2023-09-08T15:07:48;41.80;27.20
33105;DHT22;19476;51.448;6.674;2023-09-08T15:10:14;42.00;27.20
33105;DHT22;19476;51.448;6.674;2023-09-08T15:12:39;42.00;27.20
33105;DHT22;19476;51.448;6.674;2023-09-08T15:15:05;42.10;27.10
33105;DHT22;19476;51.448;6.674;2023-09-08T15:17:33;42.10;27.20
33105;DHT22;19476;51.448;6.674;2023-09-08T15:20:01;42.20;27.00
33105;DHT22;19476;51.448;6.674;2023-09-08T15:22:27;42.30;27.00
33105;DHT22;19476;51.448;6.674;2023-09-08T15:24:53;42.30;26.90
33105;DHT22;19476;51.448;6.674;2023-09-08T15:27:19;42.40;26.90
33105;DHT22;19476;51.448;6.674;2023-09-08T15:29:45;42.50;26.90
33105;DHT22;19476;51.448;6.674;2023-09-08T15:32:11;42.50;27.00
33105;DHT22;19476;51.448;6.674;2023-09-08T15:34:37;42.70;26.80
33105;DHT22;19476;51.448;6.674;2023-09-08T15:37:03;42.80;26.80
33105;DHT22;19476;51.448;6.674;2023-09-08T15:39:29;43.00;26.70